CheckWX is a tool to help pilots better visualize weather data.  It is not intended as a substitute for an official pre-flight weather briefing.

03:20:18 UTC

KLIT TAF
Bill and Hillary Clinton National / Adams Field Airport
Little Rock, Arkansas, USA
KLIT 270159Z 2702/2724 23005KT P6SM VCFG SCT015 OVC050 TEMPO 2702/2705 5SM BR BKN008 OVC015 FM270500 VRB03KT 2SM BR BKN002 FM271500 VRB03KT 4SM BR SCT004 BKN250 FM271800 VRB05KT P6SM SCT250

Jan-27@
02:00 UTC

Jan-27 @ 02:00 UTC

Jan-27@
05:00 UTC

Jan-27 @ 05:00 UTC

KLIT 270159Z 2702/2724 23005KT P6SM VCFG SCT015 OVC050
Wind
  • 230° at 5 KTS
Conditions
Area Fog
Cloud Levels
  • Scattered at 1,500' AGL
  • Overcast at 5,000' AGL

Jan-27@
02:00 UTC

Jan-27 @ 02:00 UTC

Jan-27@
05:00 UTC

Jan-27 @ 05:00 UTC

TEMPO 2702/2705 5SM BR BKN008 OVC015

Temporary

Temporary Changes expected for less than half the time period

Conditions
Mist
Cloud Levels
  • Broken at 800' AGL
  • Overcast at 1,500' AGL

Jan-27@
05:00 UTC

Jan-27 @ 05:00 UTC

Jan-27@
15:00 UTC

Jan-27 @ 15:00 UTC

FM270500 VRB03KT 2SM BR BKN002

From

From Standard forecast or significant change

Wind
  • Variable at 3 KTS
Conditions
Mist
Cloud Levels
  • Broken at 200' AGL

Jan-27@
15:00 UTC

Jan-27 @ 15:00 UTC

Jan-27@
18:00 UTC

Jan-27 @ 18:00 UTC

FM271500 VRB03KT 4SM BR SCT004 BKN250

From

From Standard forecast or significant change

Wind
  • Variable at 3 KTS
Conditions
Mist
Cloud Levels
  • Scattered at 400' AGL
  • Broken at 25,000' AGL

Jan-27@
18:00 UTC

Jan-27 @ 18:00 UTC

Jan-28@
00:00 UTC

Jan-28 @ 00:00 UTC

FM271800 VRB05KT P6SM SCT250

From

From Standard forecast or significant change

Wind
  • Variable at 5 KTS
Cloud Levels
  • Scattered at 25,000' AGL